Terminal Aerodrome Forecast
Issued by NWS

Home | Current Version | Previous Version | Graphics & Text | Print | Product List | Glossary On
Versions: 1 2 3 4 5 6 7 8 9 10 11 12 13 14 15 16 17 18 19 20
319
FTUS43 KGRB 230352 AAA
TAFAUW
TAF AMD
KAUW 230352Z 2304/2324 02010G15KT P6SM -SN OVC012
      TEMPO 2304/2308 5SM -FZDZSN OVC009
     FM231000 36013G24KT P6SM -SN OVC012
     FM231700 34013G21KT P6SM BKN030
     FM232300 33009KT P6SM SCT060=

USA.gov is the U.S. government's official web portal to all federal, state and local government web resources and services.